Time;durP1;ratioP1;P1;durP2;ratioP2;P2;SDS_P1;SDS_P2;PMS_P1;PMS_P2;Temp;Humidity;BMP_temperature;BMP_pressure;BME280_temperature;BME280_humidity;BME280_pressure;Samples;Min_cycle;Max_cycle;Signal;HPM_P1;HPM_P2
2022/09/14 00:01:43;;;;;;;10.30;3.85;;;;;;;;;;5149223;27;20464;-67
2022/09/14 00:04:09;;;;;;;;;;;;;;;;;;5151589;27;20078;-66
2022/09/14 00:06:35;;;;;;;10.43;3.72;;;;;;;;;;5151869;27;19918;-66
2022/09/14 00:09:01;;;;;;;;;;;;;;;;;;5151103;27;20053;-66
2022/09/14 00:11:29;;;;;;;14.75;3.83;;;;;;;;;;5149413;27;20006;-66
2022/09/14 00:13:56;;;;;;;12.32;3.85;;;;;;;;;;5129922;27;20109;-67
2022/09/14 00:16:24;;;;;;;16.60;3.90;;;;;;;;;;5133861;27;20080;-66
2022/09/14 00:18:51;;;;;;;15.43;4.60;;;;;;;;;;5150504;27;20449;-67
2022/09/14 00:21:17;;;;;;;15.77;4.25;;;;;;;;;;5150465;27;20104;-67
2022/09/14 00:23:43;;;;;;;14.57;4.03;;;;;;;;;;5129525;27;20051;-67
2022/09/14 00:26:14;;;;;;;10.05;3.70;;;;;;;;;;5152710;27;20054;-67
2022/09/14 00:28:42;;;;;;;15.70;3.70;;;;;;;;;;5150979;27;20201;-67
2022/09/14 00:31:08;;;;;;;12.05;3.67;;;;;;;;;;5149097;27;20365;-66
2022/09/14 00:33:34;;;;;;;10.45;3.60;;;;;;;;;;5149207;27;20039;-67
2022/09/14 00:36:27;;;;;;;16.20;3.90;;;;;;;;;;5150013;27;20039;-66
2022/09/14 00:38:55;;;;;;;14.43;3.80;;;;;;;;;;5149015;27;20091;-66
2022/09/14 00:41:26;;;;;;;12.55;3.45;;;;;;;;;;5148602;27;20357;-67
2022/09/14 00:43:52;;;;;;;12.32;3.78;;;;;;;;;;5150022;27;20508;-66
2022/09/14 00:46:20;;;;;;;13.50;4.55;;;;;;;;;;5150401;27;20054;-66
2022/09/14 00:48:46;;;;;;;14.13;4.00;;;;;;;;;;5149749;27;20153;-66
2022/09/14 00:51:12;;;;;;;16.85;4.18;;;;;;;;;;5148502;27;20157;-66
2022/09/14 00:53:39;;;;;;;12.73;4.00;;;;;;;;;;5151019;27;20049;-67
2022/09/14 00:56:05;;;;;;;;;;;;;;;;;;5133022;27;20111;-66
2022/09/14 00:58:31;;;;;;;13.45;4.03;;;;;;;;;;5149084;27;19919;-67
2022/09/14 01:00:57;;;;;;;12.18;3.95;;;;;;;;;;5148333;27;20047;-67
2022/09/14 01:03:24;;;;;;;14.13;3.78;;;;;;;;;;5149567;27;22113;-67
2022/09/14 01:05:57;;;;;;;10.52;4.28;;;;;;;;;;5150991;27;20039;-67
2022/09/14 01:08:32;;;;;;;13.75;4.40;;;;;;;;;;5150328;27;20058;-67
2022/09/14 01:11:28;;;;;;;14.63;4.43;;;;;;;;;;5128988;27;20057;-67
2022/09/14 01:13:54;;;;;;;13.82;4.38;;;;;;;;;;5138846;27;20121;-67
2022/09/14 01:16:27;;;;;;;13.63;4.45;;;;;;;;;;5151167;27;20053;-66
2022/09/14 01:19:01;;;;;;;10.65;3.78;;;;;;;;;;5150225;27;20150;-66
2022/09/14 01:21:27;;;;;;;14.23;4.75;;;;;;;;;;5146856;27;20466;-67
2022/09/14 01:24:13;;;;;;;14.35;4.40;;;;;;;;;;5147568;27;20306;-67
2022/09/14 01:26:57;;;;;;;12.82;4.57;;;;;;;;;;5150156;27;20078;-66
2022/09/14 01:29:31;;;;;;;11.05;4.32;;;;;;;;;;5146542;27;20130;-67
2022/09/14 01:32:07;;;;;;;14.10;4.20;;;;;;;;;;5148589;27;20529;-66
2022/09/14 01:34:45;;;;;;;13.35;4.20;;;;;;;;;;5126917;27;20041;-66
2022/09/14 01:37:13;;;;;;;14.07;4.28;;;;;;;;;;5149769;27;20042;-66
2022/09/14 01:39:42;;;;;;;14.38;4.70;;;;;;;;;;5148537;27;20043;-66
2022/09/14 01:42:09;;;;;;;15.13;4.50;;;;;;;;;;5147893;27;20096;-67
2022/09/14 01:44:40;;;;;;;14.68;3.80;;;;;;;;;;5138076;27;20042;-66
2022/09/14 01:47:16;;;;;;;12.88;3.92;;;;;;;;;;5150294;27;20120;-66
2022/09/14 01:49:46;;;;;;;16.42;4.80;;;;;;;;;;5147326;27;20043;-67
2022/09/14 01:52:14;;;;;;;14.52;4.20;;;;;;;;;;5148422;27;20187;-67
2022/09/14 01:54:50;;;;;;;12.95;4.10;;;;;;;;;;5147267;27;20042;-67
2022/09/14 01:57:34;;;;;;;12.95;4.10;;;;;;;;;;5149673;27;20043;-66
2022/09/14 02:00:04;;;;;;;16.40;4.22;;;;;;;;;;5128475;27;20443;-67
2022/09/14 02:02:33;;;;;;;13.40;4.32;;;;;;;;;;5149751;27;20043;-67
2022/09/14 02:05:07;;;;;;;20.02;4.30;;;;;;;;;;5146718;27;20434;-67
2022/09/14 02:07:34;;;;;;;13.20;4.03;;;;;;;;;;5150289;27;20050;-66
2022/09/14 02:10:00;;;;;;;15.23;4.28;;;;;;;;;;5128329;27;20129;-66
2022/09/14 02:12:27;;;;;;;10.05;4.25;;;;;;;;;;5148111;27;20058;-66
2022/09/14 02:14:53;;;;;;;14.20;4.10;;;;;;;;;;5147289;27;20129;-67
2022/09/14 02:17:20;;;;;;;11.85;4.30;;;;;;;;;;5131659;27;20119;-67
2022/09/14 02:19:46;;;;;;;;;;;;;;;;;;5130240;27;20487;-67
2022/09/14 02:22:12;;;;;;;12.10;4.13;;;;;;;;;;5147164;27;20026;-67
2022/09/14 02:24:38;;;;;;;;;;;;;;;;;;5129906;27;20035;-67
2022/09/14 02:27:05;;;;;;;16.13;4.72;;;;;;;;;;5145992;27;19997;-67
2022/09/14 02:29:31;;;;;;;12.43;4.40;;;;;;;;;;5148557;27;20074;-67
2022/09/14 02:32:05;;;;;;;12.38;4.72;;;;;;;;;;5129357;27;20420;-67
2022/09/14 02:34:41;;;;;;;11.02;4.60;;;;;;;;;;5150055;27;20042;-67
2022/09/14 02:37:13;;;;;;;13.32;4.80;;;;;;;;;;5146502;27;20057;-67
2022/09/14 02:39:55;;;;;;;13.70;4.80;;;;;;;;;;5128470;27;20118;-67
2022/09/14 02:42:35;;;;;;;15.95;5.28;;;;;;;;;;5149293;27;20051;-67
2022/09/14 02:45:11;;;;;;;13.00;4.78;;;;;;;;;;5148238;27;20467;-68
2022/09/14 02:47:55;;;;;;;14.63;4.80;;;;;;;;;;5129259;28;20352;-67
2022/09/14 02:50:26;;;;;;;12.30;4.88;;;;;;;;;;5133080;27;20053;-67
2022/09/14 02:53:10;;;;;;;16.00;5.50;;;;;;;;;;5148955;27;20051;-67
2022/09/14 02:55:39;;;;;;;15.07;5.20;;;;;;;;;;5148650;27;20047;-68
2022/09/14 02:58:07;;;;;;;14.85;5.00;;;;;;;;;;5149283;27;20051;-67
2022/09/14 03:00:35;;;;;;;13.70;4.70;;;;;;;;;;5143210;27;20129;-67
2022/09/14 03:03:02;;;;;;;14.95;5.32;;;;;;;;;;5127400;27;20727;-67
2022/09/14 03:05:28;;;;;;;14.18;4.90;;;;;;;;;;5148076;27;20583;-67
2022/09/14 03:07:54;;;;;;;14.80;4.85;;;;;;;;;;5149810;27;20067;-67
2022/09/14 03:10:20;;;;;;;15.93;4.53;;;;;;;;;;5146816;27;20068;-69
2022/09/14 03:12:47;;;;;;;13.95;5.10;;;;;;;;;;5147383;27;20117;-67
2022/09/14 03:15:13;;;;;;;18.35;5.18;;;;;;;;;;5149212;27;20065;-67
2022/09/14 03:17:39;;;;;;;18.60;5.28;;;;;;;;;;5147364;27;20098;-67
2022/09/14 03:20:05;;;;;;;14.18;5.53;;;;;;;;;;5148473;27;20061;-67
2022/09/14 03:22:31;;;;;;;;;;;;;;;;;;5146234;27;20459;-67
2022/09/14 03:24:57;;;;;;;15.75;5.50;;;;;;;;;;5149871;27;20119;-67
2022/09/14 03:27:23;;;;;;;14.77;5.38;;;;;;;;;;5148340;27;20294;-67
2022/09/14 03:29:49;;;;;;;13.68;5.57;;;;;;;;;;5130991;27;20073;-67
2022/09/14 03:32:15;;;;;;;15.40;5.47;;;;;;;;;;5146527;27;20055;-67
2022/09/14 03:34:41;;;;;;;14.52;5.85;;;;;;;;;;5127383;27;20099;-67
2022/09/14 03:37:07;;;;;;;17.00;5.80;;;;;;;;;;5146572;27;20043;-67
2022/09/14 03:39:33;;;;;;;14.15;5.57;;;;;;;;;;5151198;27;20047;-67
2022/09/14 03:41:59;;;;;;;12.93;5.30;;;;;;;;;;5151120;27;20074;-67
2022/09/14 03:44:25;;;;;;;13.90;5.35;;;;;;;;;;5130629;27;20058;-67
2022/09/14 03:46:51;;;;;;;12.35;5.60;;;;;;;;;;5150320;27;20054;-67
2022/09/14 03:49:17;;;;;;;15.38;5.70;;;;;;;;;;5151124;27;20047;-67
2022/09/14 03:51:45;;;;;;;15.02;5.80;;;;;;;;;;5150070;27;20142;-66
2022/09/14 03:54:11;;;;;;;17.00;6.25;;;;;;;;;;5129402;27;20034;-66
2022/09/14 03:56:37;;;;;;;13.82;5.75;;;;;;;;;;5133461;27;20126;-67
2022/09/14 03:59:03;;;;;;;12.55;5.93;;;;;;;;;;5151028;27;20035;-68
2022/09/14 04:01:31;;;;;;;14.57;5.15;;;;;;;;;;5148707;27;20119;-67
2022/09/14 04:03:57;;;;;;;14.48;5.60;;;;;;;;;;5132650;27;20524;-67
2022/09/14 04:06:24;;;;;;;15.98;5.70;;;;;;;;;;5150502;27;20473;-67
2022/09/14 04:08:51;;;;;;;13.50;5.18;;;;;;;;;;5153017;27;20046;-67
2022/09/14 04:11:21;;;;;;;14.02;5.57;;;;;;;;;;5136199;27;20126;-67
2022/09/14 04:13:47;;;;;;;13.25;5.30;;;;;;;;;;5152807;27;20045;-67
2022/09/14 04:16:13;;;;;;;13.32;5.68;;;;;;;;;;5107049;27;20061;-66
2022/09/14 04:18:39;;;;;;;;;;;;;;;;;;5150920;27;20439;-66
2022/09/14 04:21:12;;;;;;;17.85;6.55;;;;;;;;;;5151883;27;20031;-66
2022/09/14 04:23:38;;;;;;;14.07;6.28;;;;;;;;;;5126296;27;20042;-66
2022/09/14 04:26:11;;;;;;;15.07;5.72;;;;;;;;;;5145304;27;20592;-66
2022/09/14 04:28:37;;;;;;;12.57;5.00;;;;;;;;;;5148811;27;20078;-66
2022/09/14 04:31:03;;;;;;;16.85;5.85;;;;;;;;;;5150083;27;20050;-66
2022/09/14 04:33:30;;;;;;;16.75;5.85;;;;;;;;;;5148929;27;20187;-67
2022/09/14 04:35:57;;;;;;;16.85;6.07;;;;;;;;;;5150434;27;20118;-67
2022/09/14 04:38:23;;;;;;;14.55;6.00;;;;;;;;;;5147641;27;20046;-67
2022/09/14 04:40:49;;;;;;;;;;;;;;;;;;5146912;27;20439;-67
2022/09/14 04:43:15;;;;;;;14.57;5.78;;;;;;;;;;5145721;27;19967;-66
2022/09/14 04:45:41;;;;;;;13.77;6.10;;;;;;;;;;5130883;27;20338;-66
2022/09/14 04:48:07;;;;;;;15.35;5.85;;;;;;;;;;5148272;27;20380;-67
2022/09/14 04:50:33;;;;;;;15.43;6.13;;;;;;;;;;5150231;27;20038;-67
2022/09/14 04:52:59;;;;;;;14.80;6.15;;;;;;;;;;5143855;27;20071;-67
2022/09/14 04:55:26;;;;;;;19.23;6.03;;;;;;;;;;5130684;27;20069;-67
2022/09/14 04:57:52;;;;;;;15.73;6.00;;;;;;;;;;5134478;27;20525;-67
2022/09/14 05:00:18;;;;;;;17.73;5.85;;;;;;;;;;5142640;27;20042;-66
2022/09/14 05:02:44;;;;;;;15.40;5.80;;;;;;;;;;5141823;27;20057;-66
2022/09/14 05:05:10;;;;;;;13.63;5.40;;;;;;;;;;5141373;27;20095;-67
2022/09/14 05:07:37;;;;;;;14.40;5.80;;;;;;;;;;5149192;27;20442;-67
2022/09/14 05:10:04;;;;;;;14.05;6.22;;;;;;;;;;5147233;27;20558;-67
2022/09/14 05:12:30;;;;;;;15.25;5.22;;;;;;;;;;5148452;27;20405;-67
2022/09/14 05:14:56;;;;;;;;;;;;;;;;;;5147042;27;20123;-67
2022/09/14 05:17:22;;;;;;;17.02;5.93;;;;;;;;;;5148582;27;19954;-66
2022/09/14 05:19:48;;;;;;;14.82;5.22;;;;;;;;;;5128510;27;20035;-67
2022/09/14 05:22:14;;;;;;;12.38;5.20;;;;;;;;;;5123077;27;20108;-67
2022/09/14 05:24:41;;;;;;;15.15;5.65;;;;;;;;;;5147090;27;20114;-66
2022/09/14 05:27:07;;;;;;;13.63;5.40;;;;;;;;;;5137273;27;20043;-67
2022/09/14 05:29:33;;;;;;;12.20;4.63;;;;;;;;;;5140716;27;20045;-66
2022/09/14 05:32:00;;;;;;;15.98;5.32;;;;;;;;;;5148717;27;20165;-66
2022/09/14 05:34:26;;;;;;;13.25;5.97;;;;;;;;;;5130945;27;20034;-67
2022/09/14 05:36:52;;;;;;;12.05;5.60;;;;;;;;;;5136879;27;20043;-66
2022/09/14 05:39:19;;;;;;;16.10;5.70;;;;;;;;;;5149529;27;20124;-67
2022/09/14 05:41:48;;;;;;;15.50;6.05;;;;;;;;;;5148950;27;20110;-67
2022/09/14 05:44:14;;;;;;;11.65;5.22;;;;;;;;;;5147215;27;20054;-67
2022/09/14 05:46:40;;;;;;;14.75;5.13;;;;;;;;;;5142651;27;20126;-66
2022/09/14 05:49:06;;;;;;;15.63;5.68;;;;;;;;;;5144750;27;20046;-67
2022/09/14 05:51:33;;;;;;;17.73;5.70;;;;;;;;;;5141648;27;20514;-66
2022/09/14 05:53:59;;;;;;;13.38;6.18;;;;;;;;;;5144217;27;20428;-67
2022/09/14 05:56:26;;;;;;;17.08;6.03;;;;;;;;;;5144002;27;20089;-67
2022/09/14 05:58:52;;;;;;;15.57;5.90;;;;;;;;;;5148660;27;20055;-67
2022/09/14 06:01:18;;;;;;;;;;;;;;;;;;5104243;27;20053;-66
2022/09/14 06:03:48;;;;;;;14.88;5.28;;;;;;;;;;5145792;27;20053;-66
2022/09/14 06:06:15;;;;;;;15.38;5.57;;;;;;;;;;5127846;27;20452;-66
2022/09/14 06:08:42;;;;;;;13.35;5.57;;;;;;;;;;5148305;27;20426;-66
2022/09/14 06:11:07;;;;;;;;;;;;;;;;;;5149678;27;20518;-67
2022/09/14 06:13:34;;;;;;;15.00;5.70;;;;;;;;;;5148593;27;19930;-67
2022/09/14 06:16:07;;;;;;;15.05;6.47;;;;;;;;;;5149623;27;20042;-66
2022/09/14 06:18:34;;;;;;;13.63;5.80;;;;;;;;;;5148767;27;20062;-66
2022/09/14 06:21:01;;;;;;;14.73;5.65;;;;;;;;;;5149279;27;20106;-66
2022/09/14 06:23:28;;;;;;;21.52;5.63;;;;;;;;;;5149151;27;20127;-67
2022/09/14 06:25:58;;;;;;;14.05;5.55;;;;;;;;;;5149046;27;20142;-67
2022/09/14 06:28:25;;;;;;;15.40;5.80;;;;;;;;;;5149372;27;20159;-66
2022/09/14 06:30:51;;;;;;;14.45;5.28;;;;;;;;;;5149248;27;20082;-66
2022/09/14 06:33:17;;;;;;;;;;;;;;;;;;5149539;27;20464;-67
2022/09/14 06:35:47;;;;;;;17.67;6.10;;;;;;;;;;5149010;27;20009;-67
2022/09/14 06:38:13;;;;;;;14.55;5.05;;;;;;;;;;5109562;27;20393;-66
2022/09/14 06:40:50;;;;;;;19.15;5.63;;;;;;;;;;5144312;27;20069;-67
2022/09/14 06:43:16;;;;;;;15.57;4.65;;;;;;;;;;5147321;27;20065;-66
2022/09/14 06:45:42;;;;;;;16.23;5.35;;;;;;;;;;5125611;27;20062;-67
2022/09/14 06:48:08;;;;;;;15.85;4.43;;;;;;;;;;5145783;27;20058;-67
2022/09/14 06:50:34;;;;;;;11.48;4.45;;;;;;;;;;5131482;27;20047;-67
2022/09/14 06:53:00;;;;;;;15.13;3.83;;;;;;;;;;5138647;27;20089;-67
2022/09/14 06:55:26;;;;;;;14.98;4.30;;;;;;;;;;5135374;27;20041;-67
2022/09/14 06:57:52;;;;;;;13.52;3.45;;;;;;;;;;5140432;27;20043;-68
2022/09/14 07:00:18;;;;;;;13.80;3.72;;;;;;;;;;5138472;27;20035;-67
2022/09/14 07:02:46;;;;;;;11.57;3.90;;;;;;;;;;5135589;27;20091;-67
2022/09/14 07:05:12;;;;;;;12.57;3.53;;;;;;;;;;5114154;27;20043;-67
2022/09/14 07:07:38;;;;;;;13.48;3.83;;;;;;;;;;5139747;27;20050;-67
2022/09/14 07:10:05;;;;;;;12.30;3.80;;;;;;;;;;5136016;27;20043;-67
2022/09/14 07:12:31;;;;;;;9.77;3.55;;;;;;;;;;5137080;27;20125;-67
2022/09/14 07:14:57;;;;;;;10.90;3.40;;;;;;;;;;5119230;27;20039;-67
2022/09/14 07:17:23;;;;;;;11.13;3.20;;;;;;;;;;5142134;27;20050;-68
2022/09/14 07:19:49;;;;;;;10.10;3.08;;;;;;;;;;5145828;27;20057;-67
2022/09/14 07:22:15;;;;;;;12.02;3.45;;;;;;;;;;5133634;27;20186;-67
2022/09/14 07:24:41;;;;;;;12.93;3.70;;;;;;;;;;5150874;27;20039;-67
2022/09/14 07:27:07;;;;;;;13.40;3.42;;;;;;;;;;5152131;27;20148;-67
2022/09/14 07:29:33;;;;;;;11.88;3.58;;;;;;;;;;5134337;27;20114;-67
2022/09/14 07:31:59;;;;;;;15.38;3.63;;;;;;;;;;5152796;27;20130;-67
2022/09/14 07:34:25;;;;;;;11.25;3.30;;;;;;;;;;5151568;27;20109;-67
2022/09/14 07:36:51;;;;;;;12.98;3.40;;;;;;;;;;5152525;27;20478;-67
2022/09/14 07:39:17;;;;;;;10.60;3.20;;;;;;;;;;5152655;27;20054;-66
2022/09/14 07:41:43;;;;;;;;;;;;;;;;;;5152552;27;20062;-67
2022/09/14 07:44:12;;;;;;;11.68;3.70;;;;;;;;;;5133056;27;20048;-67
2022/09/14 07:46:39;;;;;;;10.98;3.63;;;;;;;;;;5150148;27;20336;-67
2022/09/14 07:49:09;;;;;;;12.10;3.47;;;;;;;;;;5152466;27;20423;-67
2022/09/14 07:51:35;;;;;;;13.05;3.40;;;;;;;;;;5152449;27;20050;-67
2022/09/14 07:54:02;;;;;;;16.67;3.50;;;;;;;;;;5151833;27;20450;-67
2022/09/14 07:56:28;;;;;;;12.45;3.60;;;;;;;;;;5150277;27;20043;-67
2022/09/14 07:58:57;;;;;;;15.25;3.60;;;;;;;;;;5150530;27;20047;-67
2022/09/14 08:01:24;;;;;;;13.98;3.33;;;;;;;;;;5151091;27;20111;-67
2022/09/14 08:03:51;;;;;;;11.45;3.17;;;;;;;;;;5149850;27;20043;-67
2022/09/14 08:06:17;;;;;;;;;;;;;;;;;;5152711;27;20046;-66
2022/09/14 08:08:44;;;;;;;13.98;3.17;;;;;;;;;;5151583;27;19926;-67
2022/09/14 08:11:12;;;;;;;10.93;2.72;;;;;;;;;;5152062;27;20127;-67
2022/09/14 08:13:39;;;;;;;16.38;3.63;;;;;;;;;;5150095;27;20053;-67
2022/09/14 08:16:05;;;;;;;16.98;3.22;;;;;;;;;;5130430;27;20043;-66
2022/09/14 08:18:32;;;;;;;14.07;3.65;;;;;;;;;;5152289;27;20158;-66
2022/09/14 08:21:03;;;;;;;13.80;2.95;;;;;;;;;;5151617;27;20119;-66
2022/09/14 08:23:29;;;;;;;12.50;2.97;;;;;;;;;;5129779;27;20129;-67
2022/09/14 08:25:55;;;;;;;13.27;3.05;;;;;;;;;;5150534;27;20180;-66
2022/09/14 08:28:21;;;;;;;15.13;2.85;;;;;;;;;;5151770;27;20042;-66
2022/09/14 08:30:47;;;;;;;18.33;3.20;;;;;;;;;;5151250;27;20059;-67
2022/09/14 08:33:14;;;;;;;11.90;2.90;;;;;;;;;;5149320;27;20473;-66
2022/09/14 08:35:44;;;;;;;15.65;3.03;;;;;;;;;;5129834;27;20066;-66
2022/09/14 08:38:10;;;;;;;13.15;2.63;;;;;;;;;;5151186;27;20435;-66
2022/09/14 08:40:42;;;;;;;10.77;2.60;;;;;;;;;;5151511;27;20043;-66
2022/09/14 08:43:09;;;;;;;13.60;2.47;;;;;;;;;;5151489;27;20038;-68
2022/09/14 08:45:35;;;;;;;16.65;2.65;;;;;;;;;;5115354;27;20069;-66
2022/09/14 08:48:02;;;;;;;16.30;2.50;;;;;;;;;;5133039;27;20051;-67
2022/09/14 08:50:28;;;;;;;13.07;2.40;;;;;;;;;;5133317;27;20050;-67
2022/09/14 08:52:55;;;;;;;14.95;2.75;;;;;;;;;;5150489;27;20061;-66
2022/09/14 08:55:21;;;;;;;;;;;;;;;;;;5151622;27;20109;-69
2022/09/14 08:58:12;;;;;;;10.95;2.47;;;;;;;;;;5149315;27;19958;-67
2022/09/14 09:00:45;;;;;;;13.10;2.47;;;;;;;;;;5150632;27;20356;-67
2022/09/14 09:03:31;;;;;;;11.68;2.25;;;;;;;;;;5132000;27;20053;-68
2022/09/14 09:05:57;;;;;;;12.77;2.53;;;;;;;;;;5150826;27;20046;-66
2022/09/14 09:08:32;;;;;;;12.10;2.47;;;;;;;;;;5148870;27;20057;-67
2022/09/14 09:10:59;;;;;;;13.90;2.53;;;;;;;;;;5150701;27;20103;-67
2022/09/14 09:13:28;;;;;;;13.90;2.50;;;;;;;;;;5132089;27;20039;-66
2022/09/14 09:15:57;;;;;;;17.65;2.30;;;;;;;;;;5150404;27;20082;-67
2022/09/14 09:18:23;;;;;;;11.10;2.00;;;;;;;;;;5130829;27;20050;-69
2022/09/14 09:20:51;;;;;;;11.07;2.22;;;;;;;;;;5150870;27;20051;-68
2022/09/14 09:23:19;;;;;;;13.45;2.20;;;;;;;;;;5150763;27;20141;-67
2022/09/14 09:25:51;;;;;;;13.75;2.20;;;;;;;;;;5150647;27;20108;-68
2022/09/14 09:28:18;;;;;;;9.32;2.25;;;;;;;;;;5149520;27;21137;-67
2022/09/14 09:30:44;;;;;;;12.55;2.38;;;;;;;;;;5148965;27;20062;-68
2022/09/14 09:33:16;;;;;;;14.77;2.83;;;;;;;;;;5131466;27;20299;-68
2022/09/14 09:35:43;;;;;;;10.65;2.30;;;;;;;;;;5150355;27;20403;-68
2022/09/14 09:38:14;;;;;;;14.57;2.70;;;;;;;;;;5149467;27;20043;-67
2022/09/14 09:40:43;;;;;;;11.05;2.58;;;;;;;;;;5149474;27;20047;-67
2022/09/14 09:43:17;;;;;;;9.95;1.98;;;;;;;;;;5149866;27;20057;-68
2022/09/14 09:45:46;;;;;;;14.25;2.80;;;;;;;;;;5150393;27;20105;-68
2022/09/14 09:48:13;;;;;;;13.45;2.20;;;;;;;;;;5131177;27;20391;-67
2022/09/14 09:50:47;;;;;;;16.25;2.55;;;;;;;;;;5148934;27;20450;-67
2022/09/14 09:53:16;;;;;;;16.17;2.60;;;;;;;;;;5150020;27;20058;-67
2022/09/14 09:55:46;;;;;;;13.73;2.60;;;;;;;;;;5150543;27;20057;-67
2022/09/14 09:58:22;;;;;;;12.95;2.63;;;;;;;;;;5149950;27;20130;-67
2022/09/14 10:00:56;;;;;;;12.07;2.42;;;;;;;;;;5149011;27;20043;-67
2022/09/14 10:03:33;;;;;;;9.93;2.10;;;;;;;;;;5149912;27;20447;-67
2022/09/14 10:06:04;;;;;;;11.65;2.40;;;;;;;;;;5129301;27;20050;-67
2022/09/14 10:08:34;;;;;;;16.88;2.70;;;;;;;;;;5150155;27;20046;-67
2022/09/14 10:11:03;;;;;;;15.30;2.80;;;;;;;;;;5149280;27;20055;-66
2022/09/14 10:13:33;;;;;;;11.55;2.30;;;;;;;;;;5149902;27;20089;-67
2022/09/14 10:16:07;;;;;;;12.18;2.53;;;;;;;;;;5147330;27;20043;-67
2022/09/14 10:18:34;;;;;;;13.10;2.67;;;;;;;;;;5130174;27;20141;-66
2022/09/14 10:21:00;;;;;;;10.40;2.30;;;;;;;;;;5129174;27;20051;-66
2022/09/14 10:23:28;;;;;;;13.40;2.30;;;;;;;;;;5136188;27;20130;-67
2022/09/14 10:26:12;;;;;;;9.75;2.55;;;;;;;;;;5149560;27;20332;-69
2022/09/14 10:28:48;;;;;;;16.13;2.30;;;;;;;;;;5130602;27;20510;-66
2022/09/14 10:31:15;;;;;;;21.50;2.60;;;;;;;;;;5148885;27;20062;-66
2022/09/14 10:33:41;;;;;;;13.00;2.72;;;;;;;;;;5147934;27;20216;-67
2022/09/14 10:36:12;;;;;;;11.23;2.13;;;;;;;;;;5149356;27;20046;-66
2022/09/14 10:38:44;;;;;;;12.77;2.40;;;;;;;;;;5149655;27;20118;-67
2022/09/14 10:41:30;;;;;;;13.52;2.45;;;;;;;;;;5148944;27;20121;-66
2022/09/14 10:44:20;;;;;;;11.75;1.90;;;;;;;;;;5149685;27;20177;-66
2022/09/14 10:47:15;;;;;;;9.02;2.05;;;;;;;;;;5148888;27;20146;-66
2022/09/14 10:49:46;;;;;;;12.93;2.67;;;;;;;;;;5093896;27;20073;-67
2022/09/14 10:52:21;;;;;;;13.35;2.58;;;;;;;;;;5149246;27;20042;-67
2022/09/14 10:54:56;;;;;;;12.27;2.30;;;;;;;;;;5149096;27;20371;-71
2022/09/14 10:57:38;;;;;;;11.27;2.10;;;;;;;;;;5147723;27;20117;-67
2022/09/14 11:00:12;;;;;;;15.20;2.20;;;;;;;;;;5148806;27;20043;-67
2022/09/14 11:02:48;;;;;;;9.75;1.92;;;;;;;;;;5148742;27;20397;-67
2022/09/14 11:05:23;;;;;;;13.75;2.30;;;;;;;;;;5148754;27;20134;-67
2022/09/14 11:07:49;;;;;;;15.25;2.97;;;;;;;;;;5147643;27;20043;-67
2022/09/14 11:10:18;;;;;;;8.00;1.83;;;;;;;;;;5148620;27;20054;-66
2022/09/14 11:12:50;;;;;;;9.63;2.20;;;;;;;;;;5148647;27;20602;-66
2022/09/14 11:15:34;;;;;;;17.05;3.00;;;;;;;;;;5148512;27;20154;-67
2022/09/14 11:18:03;;;;;;;11.48;2.33;;;;;;;;;;5141273;27;20113;-67
2022/09/14 11:20:32;;;;;;;12.27;2.30;;;;;;;;;;5128008;27;20123;-69
2022/09/14 11:23:07;;;;;;;13.48;2.40;;;;;;;;;;5144654;27;20084;-67
2022/09/14 11:25:41;;;;;;;9.95;2.15;;;;;;;;;;5149202;27;20533;-66
2022/09/14 11:28:13;;;;;;;10.57;2.00;;;;;;;;;;5147160;27;20034;-66
2022/09/14 11:30:42;;;;;;;12.20;2.20;;;;;;;;;;5149199;27;20057;-67
2022/09/14 11:33:11;;;;;;;11.43;2.30;;;;;;;;;;5147480;27;20447;-67
2022/09/14 11:35:42;;;;;;;11.07;2.20;;;;;;;;;;5148813;27;20082;-68
2022/09/14 11:38:16;;;;;;;12.65;2.33;;;;;;;;;;5147304;27;20358;-66
2022/09/14 11:40:46;;;;;;;9.02;2.30;;;;;;;;;;5128070;28;20047;-67
2022/09/14 11:43:15;;;;;;;11.93;2.63;;;;;;;;;;5108828;28;20043;-66
2022/09/14 11:45:44;;;;;;;11.82;2.25;;;;;;;;;;5109905;28;20103;-66
2022/09/14 11:48:30;;;;;;;12.13;2.40;;;;;;;;;;5127606;28;20410;-67
2022/09/14 11:51:14;;;;;;;8.77;2.22;;;;;;;;;;5148494;27;20138;-67
2022/09/14 11:53:45;;;;;;;8.25;1.92;;;;;;;;;;5148682;27;20435;-68
2022/09/14 11:56:28;;;;;;;10.40;2.50;;;;;;;;;;5148479;27;20058;-67
2022/09/14 11:58:59;;;;;;;14.45;2.20;;;;;;;;;;5149054;27;20055;-66
2022/09/14 12:01:37;;;;;;;11.50;2.17;;;;;;;;;;5148287;27;20076;-67
2022/09/14 12:04:05;;;;;;;12.52;2.53;;;;;;;;;;5124109;27;20118;-67
2022/09/14 12:06:31;;;;;;;9.82;2.20;;;;;;;;;;5131377;27;20574;-66
2022/09/14 12:09:16;;;;;;;8.93;2.15;;;;;;;;;;5131968;27;20134;-73
2022/09/14 12:11:43;;;;;;;12.02;2.30;;;;;;;;;;5150044;27;20501;-66
2022/09/14 12:14:28;;;;;;;9.52;2.10;;;;;;;;;;5150332;27;20130;-66
2022/09/14 12:17:04;;;;;;;11.43;2.33;;;;;;;;;;5149560;27;20073;-66
2022/09/14 12:19:31;;;;;;;12.43;2.30;;;;;;;;;;5137431;27;20042;-66
2022/09/14 12:22:17;;;;;;;12.27;2.15;;;;;;;;;;5133731;27;20043;-66
2022/09/14 12:24:43;;;;;;;11.45;2.28;;;;;;;;;;5149232;27;20043;-66
2022/09/14 12:27:09;;;;;;;;;;;;;;;;;;5133888;27;20047;-67
2022/09/14 12:29:36;;;;;;;10.87;2.27;;;;;;;;;;5149887;27;19919;-67
2022/09/14 12:32:02;;;;;;;;;;;;;;;;;;5116016;27;20054;-67
2022/09/14 12:34:30;;;;;;;13.18;2.30;;;;;;;;;;5151247;27;19998;-67
2022/09/14 12:36:59;;;;;;;10.65;2.30;;;;;;;;;;5151657;27;20042;-66
2022/09/14 12:39:32;;;;;;;12.32;2.33;;;;;;;;;;5131299;27;20205;-66
2022/09/14 12:42:03;;;;;;;10.55;2.40;;;;;;;;;;5151843;27;20047;-68
2022/09/14 12:44:29;;;;;;;12.38;2.50;;;;;;;;;;5151637;27;20053;-67
2022/09/14 12:46:55;;;;;;;;;;;;;;;;;;5152528;27;20118;-67
2022/09/14 12:49:29;;;;;;;11.70;2.10;;;;;;;;;;5151795;27;20367;-67
2022/09/14 12:51:56;;;;;;;10.82;2.35;;;;;;;;;;5149952;27;20514;-68
2022/09/14 12:54:25;;;;;;;10.10;2.10;;;;;;;;;;5151034;27;20347;-67
2022/09/14 12:57:00;;;;;;;11.52;2.20;;;;;;;;;;5132396;27;20043;-68
2022/09/14 12:59:41;;;;;;;10.02;2.30;;;;;;;;;;5150852;27;20374;-70
2022/09/14 13:02:13;;;;;;;11.60;2.42;;;;;;;;;;5150825;27;20463;-67
2022/09/14 13:04:41;;;;;;;13.63;2.28;;;;;;;;;;5151402;27;20182;-66
2022/09/14 13:07:17;;;;;;;10.77;2.10;;;;;;;;;;5152148;27;20047;-67
2022/09/14 13:09:47;;;;;;;13.80;2.40;;;;;;;;;;5151279;27;20050;-66
2022/09/14 13:12:14;;;;;;;10.73;2.03;;;;;;;;;;5149508;27;20038;-67
2022/09/14 13:14:48;;;;;;;12.48;2.63;;;;;;;;;;5132878;27;20069;-67
2022/09/14 13:17:15;;;;;;;11.65;2.15;;;;;;;;;;5152035;27;20051;-67
2022/09/14 13:19:41;;;;;;;8.57;2.10;;;;;;;;;;5132097;27;20112;-68
2022/09/14 13:22:18;;;;;;;8.20;2.17;;;;;;;;;;5130100;27;20395;-71
2022/09/14 13:24:45;;;;;;;12.02;2.25;;;;;;;;;;5149261;27;20043;-68
2022/09/14 13:27:19;;;;;;;8.57;2.28;;;;;;;;;;5133062;27;20047;-69
2022/09/14 13:29:45;;;;;;;10.73;2.10;;;;;;;;;;5151021;27;20442;-68
2022/09/14 13:32:15;;;;;;;9.27;2.35;;;;;;;;;;5149700;27;20054;-68
2022/09/14 13:34:41;;;;;;;11.38;2.25;;;;;;;;;;5151092;27;20046;-69
2022/09/14 13:37:07;;;;;;;;;;;;;;;;;;5151588;27;20042;-67
2022/09/14 13:39:35;;;;;;;10.80;2.47;;;;;;;;;;5150450;27;20270;-67
2022/09/14 13:42:01;;;;;;;9.68;2.35;;;;;;;;;;5150276;27;20043;-73
2022/09/14 13:44:30;;;;;;;9.90;2.20;;;;;;;;;;5132317;27;20403;-68
2022/09/14 13:46:57;;;;;;;13.45;2.50;;;;;;;;;;5151489;27;20053;-67
2022/09/14 13:49:24;;;;;;;11.75;2.33;;;;;;;;;;5151301;27;20047;-68
2022/09/14 13:51:50;;;;;;;13.38;2.28;;;;;;;;;;5150975;27;20427;-68
2022/09/14 13:54:18;;;;;;;12.00;2.35;;;;;;;;;;5150036;27;20042;-67
2022/09/14 13:56:44;;;;;;;10.80;2.83;;;;;;;;;;5150831;27;20405;-67
2022/09/14 13:59:10;;;;;;;;;;;;;;;;;;5151601;27;20054;-68
2022/09/14 14:01:41;;;;;;;10.05;2.40;;;;;;;;;;5131792;27;20307;-68
2022/09/14 14:04:27;;;;;;;8.85;2.13;;;;;;;;;;5148768;27;20462;-67
2022/09/14 14:07:12;;;;;;;8.75;2.00;;;;;;;;;;5150112;27;20371;-66
2022/09/14 14:09:43;;;;;;;13.50;2.45;;;;;;;;;;5150047;27;20065;-67
2022/09/14 14:12:10;;;;;;;8.05;2.35;;;;;;;;;;5150304;27;20058;-66
2022/09/14 14:14:36;;;;;;;6.57;1.88;;;;;;;;;;5147929;27;20057;-68
2022/09/14 14:17:02;;;;;;;;;;;;;;;;;;5150467;27;20113;-68
2022/09/14 14:19:29;;;;;;;10.32;2.00;;;;;;;;;;5150299;27;19930;-66
2022/09/14 14:22:31;;;;;;;10.73;2.10;;;;;;;;;;5150787;27;20042;-66
2022/09/14 14:24:58;;;;;;;10.43;2.20;;;;;;;;;;5063165;28;20040;-67
2022/09/14 14:27:30;;;;;;;10.80;2.40;;;;;;;;;;5121570;27;20122;-67
2022/09/14 14:29:56;;;;;;;9.43;2.20;;;;;;;;;;5132068;27;20046;-66
2022/09/14 14:32:23;;;;;;;13.32;2.22;;;;;;;;;;5131988;27;20047;-66
2022/09/14 14:34:51;;;;;;;8.20;2.10;;;;;;;;;;5149687;27;20141;-67
2022/09/14 14:37:19;;;;;;;10.07;2.00;;;;;;;;;;5149655;27;20421;-70
2022/09/14 14:39:45;;;;;;;9.52;1.88;;;;;;;;;;5149392;27;20051;-67
2022/09/14 14:42:12;;;;;;;8.27;1.90;;;;;;;;;;5148928;27;20182;-66
2022/09/14 14:44:38;;;;;;;8.85;1.80;;;;;;;;;;5113415;27;20052;-67
2022/09/14 14:47:04;;;;;;;;;;;;;;;;;;5131445;27;20047;-74
2022/09/14 14:49:30;;;;;;;10.02;2.00;;;;;;;;;;5130648;27;19942;-66
2022/09/14 14:51:57;;;;;;;9.50;2.13;;;;;;;;;;5130279;27;20042;-67